sensor_id;sensor_type;location;lat;lon;timestamp;temperature;humidity
32107;DHT22;18622;51.998;10.440;2023-09-30T03:30:08;13.40;99.90
32107;DHT22;18622;51.998;10.440;2023-09-30T03:32:38;13.40;99.90
32107;DHT22;18622;51.998;10.440;2023-09-30T03:35:07;13.40;99.90
32107;DHT22;18622;51.998;10.440;2023-09-30T03:37:37;13.40;99.90
32107;DHT22;18622;51.998;10.440;2023-09-30T03:40:05;13.40;99.90
32107;DHT22;18622;51.998;10.440;2023-09-30T03:42:35;13.40;99.90
32107;DHT22;18622;51.998;10.440;2023-09-30T03:45:03;13.40;99.90
32107;DHT22;18622;51.998;10.440;2023-09-30T03:47:32;13.40;99.90
32107;DHT22;18622;51.998;10.440;2023-09-30T03:49:59;13.40;99.90
32107;DHT22;18622;51.998;10.440;2023-09-30T03:52:27;13.30;99.90
32107;DHT22;18622;51.998;10.440;2023-09-30T03:54:55;13.40;99.90
32107;DHT22;18622;51.998;10.440;2023-09-30T03:57:24;13.40;99.90
32107;DHT22;18622;51.998;10.440;2023-09-30T03:59:53;13.30;99.90
32107;DHT22;18622;51.998;10.440;2023-09-30T04:02:21;13.30;99.90
32107;DHT22;18622;51.998;10.440;2023-09-30T04:04:49;13.30;99.90
32107;DHT22;18622;51.998;10.440;2023-09-30T04:07:18;13.20;99.90
32107;DHT22;18622;51.998;10.440;2023-09-30T04:09:48;13.20;99.90
32107;DHT22;18622;51.998;10.440;2023-09-30T04:12:15;13.20;99.90
32107;DHT22;18622;51.998;10.440;2023-09-30T04:14:43;13.20;99.90
32107;DHT22;18622;51.998;10.440;2023-09-30T04:17:11;13.20;99.90
32107;DHT22;18622;51.998;10.440;2023-09-30T04:19:39;13.10;99.90
32107;DHT22;18622;51.998;10.440;2023-09-30T04:22:07;13.10;99.90
32107;DHT22;18622;51.998;10.440;2023-09-30T04:24:35;13.10;99.90
32107;DHT22;18622;51.998;10.440;2023-09-30T04:27:03;13.10;99.90
32107;DHT22;18622;51.998;10.440;2023-09-30T04:29:32;13.10;99.90
32107;DHT22;18622;51.998;10.440;2023-09-30T04:32:01;13.10;99.90
32107;DHT22;18622;51.998;10.440;2023-09-30T04:34:29;13.10;99.90
32107;DHT22;18622;51.998;10.440;2023-09-30T04:36:57;13.10;99.90
32107;DHT22;18622;51.998;10.440;2023-09-30T04:39:26;13.10;99.90
32107;DHT22;18622;51.998;10.440;2023-09-30T04:41:54;13.10;99.90
32107;DHT22;18622;51.998;10.440;2023-09-30T04:44:22;13.10;99.90
32107;DHT22;18622;51.998;10.440;2023-09-30T04:46:50;13.20;99.90
32107;DHT22;18622;51.998;10.440;2023-09-30T04:49:18;13.20;99.90
32107;DHT22;18622;51.998;10.440;2023-09-30T04:51:46;13.20;99.90
32107;DHT22;18622;51.998;10.440;2023-09-30T04:54:15;13.30;99.90
32107;DHT22;18622;51.998;10.440;2023-09-30T04:56:43;13.30;99.90
32107;DHT22;18622;51.998;10.440;2023-09-30T04:59:12;13.30;99.90
32107;DHT22;18622;51.998;10.440;2023-09-30T05:01:40;13.40;99.90
32107;DHT22;18622;51.998;10.440;2023-09-30T05:04:09;13.40;99.90
32107;DHT22;18622;51.998;10.440;2023-09-30T05:06:36;13.40;99.90
32107;DHT22;18622;51.998;10.440;2023-09-30T05:09:04;13.50;99.90
32107;DHT22;18622;51.998;10.440;2023-09-30T05:11:34;13.50;99.90
32107;DHT22;18622;51.998;10.440;2023-09-30T05:14:01;13.60;99.90
32107;DHT22;18622;51.998;10.440;2023-09-30T05:16:31;13.60;99.90
32107;DHT22;18622;51.998;10.440;2023-09-30T05:18:59;13.60;99.90
32107;DHT22;18622;51.998;10.440;2023-09-30T05:21:27;13.60;99.90
32107;DHT22;18622;51.998;10.440;2023-09-30T05:23:54;13.60;99.90
32107;DHT22;18622;51.998;10.440;2023-09-30T05:26:23;13.70;99.90
32107;DHT22;18622;51.998;10.440;2023-09-30T05:28:50;13.70;99.90
32107;DHT22;18622;51.998;10.440;2023-09-30T05:31:19;13.70;99.90
32107;DHT22;18622;51.998;10.440;2023-09-30T05:33:47;13.70;99.90
32107;DHT22;18622;51.998;10.440;2023-09-30T05:36:15;13.70;99.90
32107;DHT22;18622;51.998;10.440;2023-09-30T05:38:43;13.70;99.90
32107;DHT22;18622;51.998;10.440;2023-09-30T05:41:11;13.70;99.90
32107;DHT22;18622;51.998;10.440;2023-09-30T05:43:40;13.70;99.90
32107;DHT22;18622;51.998;10.440;2023-09-30T05:46:09;13.70;99.90
32107;DHT22;18622;51.998;10.440;2023-09-30T05:48:37;13.70;99.90
32107;DHT22;18622;51.998;10.440;2023-09-30T05:51:06;13.70;99.90
32107;DHT22;18622;51.998;10.440;2023-09-30T05:53:33;13.70;99.90
32107;DHT22;18622;51.998;10.440;2023-09-30T05:56:03;13.80;99.90
32107;DHT22;18622;51.998;10.440;2023-09-30T05:58:30;13.80;99.90
32107;DHT22;18622;51.998;10.440;2023-09-30T06:00:58;13.80;99.90
32107;DHT22;18622;51.998;10.440;2023-09-30T06:03:28;13.90;99.90
32107;DHT22;18622;51.998;10.440;2023-09-30T06:05:56;13.90;99.90
32107;DHT22;18622;51.998;10.440;2023-09-30T06:08:24;14.00;99.90
32107;DHT22;18622;51.998;10.440;2023-09-30T06:10:52;14.00;99.90
32107;DHT22;18622;51.998;10.440;2023-09-30T06:13:20;14.10;99.90
32107;DHT22;18622;51.998;10.440;2023-09-30T06:15:48;14.20;99.90
32107;DHT22;18622;51.998;10.440;2023-09-30T06:18:16;14.30;99.90
32107;DHT22;18622;51.998;10.440;2023-09-30T06:20:44;14.40;99.90
32107;DHT22;18622;51.998;10.440;2023-09-30T06:23:12;14.50;99.90
32107;DHT22;18622;51.998;10.440;2023-09-30T06:25:41;14.50;99.90
32107;DHT22;18622;51.998;10.440;2023-09-30T06:28:09;14.60;99.90
32107;DHT22;18622;51.998;10.440;2023-09-30T06:30:36;14.60;99.90
32107;DHT22;18622;51.998;10.440;2023-09-30T06:33:04;14.60;99.90
32107;DHT22;18622;51.998;10.440;2023-09-30T06:35:33;14.60;99.90
32107;DHT22;18622;51.998;10.440;2023-09-30T06:38:02;14.60;99.90
32107;DHT22;18622;51.998;10.440;2023-09-30T06:40:30;14.60;99.90
32107;DHT22;18622;51.998;10.440;2023-09-30T06:42:58;14.60;99.90
32107;DHT22;18622;51.998;10.440;2023-09-30T06:45:27;14.60;99.90
32107;DHT22;18622;51.998;10.440;2023-09-30T06:47:56;14.60;99.90
32107;DHT22;18622;51.998;10.440;2023-09-30T06:50:24;14.70;99.90
32107;DHT22;18622;51.998;10.440;2023-09-30T06:52:52;14.70;99.90
32107;DHT22;18622;51.998;10.440;2023-09-30T06:55:20;14.70;99.90
32107;DHT22;18622;51.998;10.440;2023-09-30T06:57:47;14.70;99.90
32107;DHT22;18622;51.998;10.440;2023-09-30T07:00:15;14.70;99.90
32107;DHT22;18622;51.998;10.440;2023-09-30T07:02:43;14.70;99.90
32107;DHT22;18622;51.998;10.440;2023-09-30T07:05:14;14.70;99.90
32107;DHT22;18622;51.998;10.440;2023-09-30T07:07:42;14.70;99.90
32107;DHT22;18622;51.998;10.440;2023-09-30T07:10:11;14.60;99.90
32107;DHT22;18622;51.998;10.440;2023-09-30T07:12:38;14.60;99.90
32107;DHT22;18622;51.998;10.440;2023-09-30T07:15:07;14.70;99.90
32107;DHT22;18622;51.998;10.440;2023-09-30T07:17:35;14.70;99.90
32107;DHT22;18622;51.998;10.440;2023-09-30T07:20:04;14.80;99.90
32107;DHT22;18622;51.998;10.440;2023-09-30T07:22:32;14.90;99.90
32107;DHT22;18622;51.998;10.440;2023-09-30T07:25:00;15.00;99.90
32107;DHT22;18622;51.998;10.440;2023-09-30T07:27:28;15.10;99.90
32107;DHT22;18622;51.998;10.440;2023-09-30T07:29:56;15.20;99.90
32107;DHT22;18622;51.998;10.440;2023-09-30T07:32:24;15.30;99.90
32107;DHT22;18622;51.998;10.440;2023-09-30T07:34:52;15.40;99.90
32107;DHT22;18622;51.998;10.440;2023-09-30T07:37:20;15.50;99.90
32107;DHT22;18622;51.998;10.440;2023-09-30T07:39:47;15.60;99.90
32107;DHT22;18622;51.998;10.440;2023-09-30T07:42:15;15.60;99.90
32107;DHT22;18622;51.998;10.440;2023-09-30T07:44:43;15.80;99.90
32107;DHT22;18622;51.998;10.440;2023-09-30T07:47:11;15.90;99.90
32107;DHT22;18622;51.998;10.440;2023-09-30T07:49:39;15.90;99.90
32107;DHT22;18622;51.998;10.440;2023-09-30T07:52:07;16.00;99.90
32107;DHT22;18622;51.998;10.440;2023-09-30T07:54:35;16.10;99.90
32107;DHT22;18622;51.998;10.440;2023-09-30T07:57:03;16.20;99.90
32107;DHT22;18622;51.998;10.440;2023-09-30T07:59:31;16.30;99.90
32107;DHT22;18622;51.998;10.440;2023-09-30T08:02:00;16.30;99.90
32107;DHT22;18622;51.998;10.440;2023-09-30T08:04:28;16.50;99.90
32107;DHT22;18622;51.998;10.440;2023-09-30T08:06:56;16.60;99.90
32107;DHT22;18622;51.998;10.440;2023-09-30T08:09:23;16.70;99.90
32107;DHT22;18622;51.998;10.440;2023-09-30T08:11:53;16.80;99.90
32107;DHT22;18622;51.998;10.440;2023-09-30T08:14:21;16.90;99.90
32107;DHT22;18622;51.998;10.440;2023-09-30T08:16:49;16.90;99.90
32107;DHT22;18622;51.998;10.440;2023-09-30T08:19:17;17.00;99.90
32107;DHT22;18622;51.998;10.440;2023-09-30T08:21:46;17.00;99.90
32107;DHT22;18622;51.998;10.440;2023-09-30T08:24:14;17.10;99.90
32107;DHT22;18622;51.998;10.440;2023-09-30T08:26:42;17.20;99.90
32107;DHT22;18622;51.998;10.440;2023-09-30T08:29:10;17.40;99.90
32107;DHT22;18622;51.998;10.440;2023-09-30T08:31:38;17.40;99.90
32107;DHT22;18622;51.998;10.440;2023-09-30T08:34:06;17.50;99.90
32107;DHT22;18622;51.998;10.440;2023-09-30T08:36:35;17.60;99.90
32107;DHT22;18622;51.998;10.440;2023-09-30T08:39:04;17.70;99.90
32107;DHT22;18622;51.998;10.440;2023-09-30T08:41:33;17.70;99.90
32107;DHT22;18622;51.998;10.440;2023-09-30T08:44:01;17.70;99.90
32107;DHT22;18622;51.998;10.440;2023-09-30T08:46:32;17.80;99.90
32107;DHT22;18622;51.998;10.440;2023-09-30T08:49:04;17.90;99.90
32107;DHT22;18622;51.998;10.440;2023-09-30T08:51:35;18.10;99.90
32107;DHT22;18622;51.998;10.440;2023-09-30T08:54:05;18.10;99.90
32107;DHT22;18622;51.998;10.440;2023-09-30T08:56:33;18.20;99.90
32107;DHT22;18622;51.998;10.440;2023-09-30T08:59:02;18.20;99.90
32107;DHT22;18622;51.998;10.440;2023-09-30T09:01:31;18.40;99.90
32107;DHT22;18622;51.998;10.440;2023-09-30T09:03:59;18.40;99.90
32107;DHT22;18622;51.998;10.440;2023-09-30T09:06:29;18.50;99.90
32107;DHT22;18622;51.998;10.440;2023-09-30T09:09:18;18.60;99.90
32107;DHT22;18622;51.998;10.440;2023-09-30T09:11:45;18.80;99.90
32107;DHT22;18622;51.998;10.440;2023-09-30T09:14:13;19.10;99.90
32107;DHT22;18622;51.998;10.440;2023-09-30T09:16:55;19.40;99.90
32107;DHT22;18622;51.998;10.440;2023-09-30T09:19:23;19.80;99.80
32107;DHT22;18622;51.998;10.440;2023-09-30T09:21:59;20.40;98.30
32107;DHT22;18622;51.998;10.440;2023-09-30T09:24:32;20.60;98.10
32107;DHT22;18622;51.998;10.440;2023-09-30T09:27:11;21.00;98.00
32107;DHT22;18622;51.998;10.440;2023-09-30T09:29:40;21.40;97.10
32107;DHT22;18622;51.998;10.440;2023-09-30T09:32:16;22.00;95.80
32107;DHT22;18622;51.998;10.440;2023-09-30T09:34:45;22.40;94.40
32107;DHT22;18622;51.998;10.440;2023-09-30T09:37:14;22.60;94.40
32107;DHT22;18622;51.998;10.440;2023-09-30T09:39:54;23.00;93.30
32107;DHT22;18622;51.998;10.440;2023-09-30T09:42:28;23.30;92.70
32107;DHT22;18622;51.998;10.440;2023-09-30T09:44:58;23.50;91.30
32107;DHT22;18622;51.998;10.440;2023-09-30T09:47:26;23.60;91.30
32107;DHT22;18622;51.998;10.440;2023-09-30T09:49:57;23.70;90.70
32107;DHT22;18622;51.998;10.440;2023-09-30T09:52:25;23.90;90.40
32107;DHT22;18622;51.998;10.440;2023-09-30T09:54:55;24.20;89.80
32107;DHT22;18622;51.998;10.440;2023-09-30T09:57:23;24.40;88.60
32107;DHT22;18622;51.998;10.440;2023-09-30T09:59:52;24.50;87.00
32107;DHT22;18622;51.998;10.440;2023-09-30T10:02:21;24.60;87.30
32107;DHT22;18622;51.998;10.440;2023-09-30T10:04:49;25.00;84.20
32107;DHT22;18622;51.998;10.440;2023-09-30T10:07:26;25.10;83.60
32107;DHT22;18622;51.998;10.440;2023-09-30T10:09:52;25.20;82.50
32107;DHT22;18622;51.998;10.440;2023-09-30T10:12:20;25.30;81.90
32107;DHT22;18622;51.998;10.440;2023-09-30T10:14:52;25.80;80.20
32107;DHT22;18622;51.998;10.440;2023-09-30T10:17:20;26.20;79.40
32107;DHT22;18622;51.998;10.440;2023-09-30T10:20:07;26.50;78.90
32107;DHT22;18622;51.998;10.440;2023-09-30T10:22:35;27.00;75.20
32107;DHT22;18622;51.998;10.440;2023-09-30T10:27:34;27.50;71.30
32107;DHT22;18622;51.998;10.440;2023-09-30T10:30:06;27.80;70.30
32107;DHT22;18622;51.998;10.440;2023-09-30T10:40:52;28.10;66.30
32107;DHT22;18622;51.998;10.440;2023-09-30T10:43:39;28.10;65.40
32107;DHT22;18622;51.998;10.440;2023-09-30T10:49:44;28.10;65.30
32107;DHT22;18622;51.998;10.440;2023-09-30T10:51:28;28.60;64.90
32107;DHT22;18622;51.998;10.440;2023-09-30T10:53:56;29.20;62.40
32107;DHT22;18622;51.998;10.440;2023-09-30T10:56:33;29.60;61.80
32107;DHT22;18622;51.998;10.440;2023-09-30T10:59:01;30.20;60.30
32107;DHT22;18622;51.998;10.440;2023-09-30T11:01:35;30.50;58.40
32107;DHT22;18622;51.998;10.440;2023-09-30T11:04:04;30.70;57.20
32107;DHT22;18622;51.998;10.440;2023-09-30T11:06:32;30.90;56.80
32107;DHT22;18622;51.998;10.440;2023-09-30T11:09:01;31.10;57.00
32107;DHT22;18622;51.998;10.440;2023-09-30T11:11:33;31.20;54.70
32107;DHT22;18622;51.998;10.440;2023-09-30T11:14:01;31.30;54.50
32107;DHT22;18622;51.998;10.440;2023-09-30T11:16:29;31.30;53.70
32107;DHT22;18622;51.998;10.440;2023-09-30T11:18:57;31.20;53.40
32107;DHT22;18622;51.998;10.440;2023-09-30T11:21:25;31.20;52.50
32107;DHT22;18622;51.998;10.440;2023-09-30T11:23:52;30.40;53.00
32107;DHT22;18622;51.998;10.440;2023-09-30T11:26:31;29.60;55.10
32107;DHT22;18622;51.998;10.440;2023-09-30T11:29:07;29.60;55.20
32107;DHT22;18622;51.998;10.440;2023-09-30T11:31:40;30.40;53.90
32107;DHT22;18622;51.998;10.440;2023-09-30T11:34:06;31.20;52.80
32107;DHT22;18622;51.998;10.440;2023-09-30T11:36:38;31.60;51.70
32107;DHT22;18622;51.998;10.440;2023-09-30T11:39:09;30.90;52.00
32107;DHT22;18622;51.998;10.440;2023-09-30T11:41:39;30.10;53.50
32107;DHT22;18622;51.998;10.440;2023-09-30T11:44:10;30.20;53.90
32107;DHT22;18622;51.998;10.440;2023-09-30T11:46:57;31.00;52.50
32107;DHT22;18622;51.998;10.440;2023-09-30T11:49:40;31.70;50.40
32107;DHT22;18622;51.998;10.440;2023-09-30T11:52:12;32.30;50.00
32107;DHT22;18622;51.998;10.440;2023-09-30T11:54:43;32.60;48.50
32107;DHT22;18622;51.998;10.440;2023-09-30T11:57:13;32.40;49.20
32107;DHT22;18622;51.998;10.440;2023-09-30T11:59:46;31.60;48.80
32107;DHT22;18622;51.998;10.440;2023-09-30T12:02:15;30.20;50.80
32107;DHT22;18622;51.998;10.440;2023-09-30T12:04:46;29.50;50.70
32107;DHT22;18622;51.998;10.440;2023-09-30T12:07:14;29.00;51.90
32107;DHT22;18622;51.998;10.440;2023-09-30T12:09:42;28.60;51.20
32107;DHT22;18622;51.998;10.440;2023-09-30T12:12:10;28.40;51.70
32107;DHT22;18622;51.998;10.440;2023-09-30T12:14:40;28.80;50.60
32107;DHT22;18622;51.998;10.440;2023-09-30T12:17:08;29.60;50.00
32107;DHT22;18622;51.998;10.440;2023-09-30T12:19:40;30.30;48.90
32107;DHT22;18622;51.998;10.440;2023-09-30T12:22:08;30.90;48.90
32107;DHT22;18622;51.998;10.440;2023-09-30T12:24:36;31.50;46.60
32107;DHT22;18622;51.998;10.440;2023-09-30T12:27:04;31.80;46.50
32107;DHT22;18622;51.998;10.440;2023-09-30T12:29:32;31.70;46.10
32107;DHT22;18622;51.998;10.440;2023-09-30T12:32:00;32.10;46.40
32107;DHT22;18622;51.998;10.440;2023-09-30T12:34:27;32.40;45.60
32107;DHT22;18622;51.998;10.440;2023-09-30T12:36:55;32.30;45.20
32107;DHT22;18622;51.998;10.440;2023-09-30T12:39:23;31.90;45.70
32107;DHT22;18622;51.998;10.440;2023-09-30T12:41:51;31.50;45.40
32107;DHT22;18622;51.998;10.440;2023-09-30T12:44:19;31.40;45.60
32107;DHT22;18622;51.998;10.440;2023-09-30T12:46:47;31.40;45.40
32107;DHT22;18622;51.998;10.440;2023-09-30T12:49:14;31.70;44.60
32107;DHT22;18622;51.998;10.440;2023-09-30T12:51:42;31.90;44.60
32107;DHT22;18622;51.998;10.440;2023-09-30T12:54:10;32.00;44.60
32107;DHT22;18622;51.998;10.440;2023-09-30T12:56:39;32.00;44.70
32107;DHT22;18622;51.998;10.440;2023-09-30T12:59:06;32.10;43.80
32107;DHT22;18622;51.998;10.440;2023-09-30T13:01:34;32.10;43.20
32107;DHT22;18622;51.998;10.440;2023-09-30T13:04:02;32.20;43.10
32107;DHT22;18622;51.998;10.440;2023-09-30T13:06:31;32.00;42.50
32107;DHT22;18622;51.998;10.440;2023-09-30T13:09:00;31.80;43.50
32107;DHT22;18622;51.998;10.440;2023-09-30T13:11:30;31.50;43.30
32107;DHT22;18622;51.998;10.440;2023-09-30T13:13:58;31.00;44.20
32107;DHT22;18622;51.998;10.440;2023-09-30T13:16:25;30.10;45.30
32107;DHT22;18622;51.998;10.440;2023-09-30T13:18:53;29.00;47.30
32107;DHT22;18622;51.998;10.440;2023-09-30T13:21:21;28.60;48.80
32107;DHT22;18622;51.998;10.440;2023-09-30T13:23:49;29.40;47.40
32107;DHT22;18622;51.998;10.440;2023-09-30T13:26:17;30.60;45.60
32107;DHT22;18622;51.998;10.440;2023-09-30T13:28:46;31.40;45.70
32107;DHT22;18622;51.998;10.440;2023-09-30T13:31:14;32.10;43.50
32107;DHT22;18622;51.998;10.440;2023-09-30T13:33:41;31.50;44.10
32107;DHT22;18622;51.998;10.440;2023-09-30T13:36:09;31.20;45.20
32107;DHT22;18622;51.998;10.440;2023-09-30T13:38:37;31.90;44.40
32107;DHT22;18622;51.998;10.440;2023-09-30T13:41:05;32.50;43.60
32107;DHT22;18622;51.998;10.440;2023-09-30T13:43:32;32.60;43.20
32107;DHT22;18622;51.998;10.440;2023-09-30T13:46:05;33.00;41.80
32107;DHT22;18622;51.998;10.440;2023-09-30T13:48:35;33.20;42.20
32107;DHT22;18622;51.998;10.440;2023-09-30T13:51:10;33.40;42.00
32107;DHT22;18622;51.998;10.440;2023-09-30T13:53:40;33.80;42.50
32107;DHT22;18622;51.998;10.440;2023-09-30T13:56:09;34.20;41.00
32107;DHT22;18622;51.998;10.440;2023-09-30T13:58:37;34.10;40.70
32107;DHT22;18622;51.998;10.440;2023-09-30T14:01:05;33.80;41.10
32107;DHT22;18622;51.998;10.440;2023-09-30T14:03:33;33.80;41.80
32107;DHT22;18622;51.998;10.440;2023-09-30T14:06:01;34.00;40.70
32107;DHT22;18622;51.998;10.440;2023-09-30T14:08:29;34.10;41.40
32107;DHT22;18622;51.998;10.440;2023-09-30T14:10:57;34.50;41.80
32107;DHT22;18622;51.998;10.440;2023-09-30T14:13:25;35.10;41.40
32107;DHT22;18622;51.998;10.440;2023-09-30T14:15:52;35.30;39.60
32107;DHT22;18622;51.998;10.440;2023-09-30T14:18:20;34.80;40.10
32107;DHT22;18622;51.998;10.440;2023-09-30T14:20:48;34.60;40.70
32107;DHT22;18622;51.998;10.440;2023-09-30T14:23:17;34.40;41.70
32107;DHT22;18622;51.998;10.440;2023-09-30T14:25:44;34.30;41.70
32107;DHT22;18622;51.998;10.440;2023-09-30T14:28:12;34.10;41.20
32107;DHT22;18622;51.998;10.440;2023-09-30T14:30:40;33.90;41.20
32107;DHT22;18622;51.998;10.440;2023-09-30T14:33:08;33.40;42.00
32107;DHT22;18622;51.998;10.440;2023-09-30T14:35:37;33.00;42.30
32107;DHT22;18622;51.998;10.440;2023-09-30T14:38:05;32.90;42.50
32107;DHT22;18622;51.998;10.440;2023-09-30T14:40:37;33.10;42.70
32107;DHT22;18622;51.998;10.440;2023-09-30T14:43:08;33.30;42.40
32107;DHT22;18622;51.998;10.440;2023-09-30T14:45:39;33.40;41.20
32107;DHT22;18622;51.998;10.440;2023-09-30T14:48:08;33.10;41.00
32107;DHT22;18622;51.998;10.440;2023-09-30T14:50:36;32.70;40.80
32107;DHT22;18622;51.998;10.440;2023-09-30T14:53:04;32.00;41.20
32107;DHT22;18622;51.998;10.440;2023-09-30T14:55:32;31.40;41.30
32107;DHT22;18622;51.998;10.440;2023-09-30T14:58:00;30.80;41.60
32107;DHT22;18622;51.998;10.440;2023-09-30T15:00:28;30.40;42.30
32107;DHT22;18622;51.998;10.440;2023-09-30T15:02:56;30.00;43.10
32107;DHT22;18622;51.998;10.440;2023-09-30T15:05:24;30.00;43.00
32107;DHT22;18622;51.998;10.440;2023-09-30T15:07:52;29.70;43.70
32107;DHT22;18622;51.998;10.440;2023-09-30T15:10:19;29.40;44.50
32107;DHT22;18622;51.998;10.440;2023-09-30T15:12:47;29.40;45.20
32107;DHT22;18622;51.998;10.440;2023-09-30T15:15:15;29.50;45.30
32107;DHT22;18622;51.998;10.440;2023-09-30T15:17:43;29.60;44.90
32107;DHT22;18622;51.998;10.440;2023-09-30T15:20:11;29.60;45.00
32107;DHT22;18622;51.998;10.440;2023-09-30T15:22:39;29.50;44.60
32107;DHT22;18622;51.998;10.440;2023-09-30T15:25:08;29.50;44.90
32107;DHT22;18622;51.998;10.440;2023-09-30T15:27:36;29.40;45.10
32107;DHT22;18622;51.998;10.440;2023-09-30T15:30:04;29.10;44.90
32107;DHT22;18622;51.998;10.440;2023-09-30T15:32:33;28.70;45.90
32107;DHT22;18622;51.998;10.440;2023-09-30T15:35:01;28.30;46.40
32107;DHT22;18622;51.998;10.440;2023-09-30T15:37:29;28.10;46.90
32107;DHT22;18622;51.998;10.440;2023-09-30T15:39:56;27.80;46.70
32107;DHT22;18622;51.998;10.440;2023-09-30T15:42:24;27.40;46.90
32107;DHT22;18622;51.998;10.440;2023-09-30T15:44:52;26.80;47.70
32107;DHT22;18622;51.998;10.440;2023-09-30T15:49:51;25.50;49.40
32107;DHT22;18622;51.998;10.440;2023-09-30T15:52:19;24.80;50.00
32107;DHT22;18622;51.998;10.440;2023-09-30T15:54:46;24.10;51.20
32107;DHT22;18622;51.998;10.440;2023-09-30T15:57:14;23.40;52.60
32107;DHT22;18622;51.998;10.440;2023-09-30T15:59:42;22.90;53.20
32107;DHT22;18622;51.998;10.440;2023-09-30T16:02:10;22.40;54.20
32107;DHT22;18622;51.998;10.440;2023-09-30T16:04:38;22.10;55.20
32107;DHT22;18622;51.998;10.440;2023-09-30T16:07:06;21.70;56.20
32107;DHT22;18622;51.998;10.440;2023-09-30T16:09:34;21.40;57.00
32107;DHT22;18622;51.998;10.440;2023-09-30T16:12:04;21.10;57.50
32107;DHT22;18622;51.998;10.440;2023-09-30T16:14:32;20.90;58.50
32107;DHT22;18622;51.998;10.440;2023-09-30T16:16:59;20.70;59.40
32107;DHT22;18622;51.998;10.440;2023-09-30T16:19:27;20.40;60.60
32107;DHT22;18622;51.998;10.440;2023-09-30T16:21:56;20.10;62.70
32107;DHT22;18622;51.998;10.440;2023-09-30T16:24:23;19.90;64.50
32107;DHT22;18622;51.998;10.440;2023-09-30T16:26:51;19.60;65.30
32107;DHT22;18622;51.998;10.440;2023-09-30T16:29:19;19.40;66.70
32107;DHT22;18622;51.998;10.440;2023-09-30T16:31:47;19.10;67.90
32107;DHT22;18622;51.998;10.440;2023-09-30T16:34:14;18.90;69.20
32107;DHT22;18622;51.998;10.440;2023-09-30T16:36:42;18.70;71.10
32107;DHT22;18622;51.998;10.440;2023-09-30T16:39:10;18.50;71.60
32107;DHT22;18622;51.998;10.440;2023-09-30T16:41:38;18.20;72.60
32107;DHT22;18622;51.998;10.440;2023-09-30T16:44:06;18.00;73.80
32107;DHT22;18622;51.998;10.440;2023-09-30T16:46:34;17.70;74.80
32107;DHT22;18622;51.998;10.440;2023-09-30T16:49:02;17.50;76.00
32107;DHT22;18622;51.998;10.440;2023-09-30T16:51:30;17.30;77.10
32107;DHT22;18622;51.998;10.440;2023-09-30T16:53:57;17.10;78.30
32107;DHT22;18622;51.998;10.440;2023-09-30T16:56:25;16.80;79.20
32107;DHT22;18622;51.998;10.440;2023-09-30T16:58:54;16.70;81.00
32107;DHT22;18622;51.998;10.440;2023-09-30T17:01:23;16.50;81.40
32107;DHT22;18622;51.998;10.440;2023-09-30T17:03:51;16.30;83.10
32107;DHT22;18622;51.998;10.440;2023-09-30T17:06:19;16.10;84.30
32107;DHT22;18622;51.998;10.440;2023-09-30T17:08:47;16.00;86.00
32107;DHT22;18622;51.998;10.440;2023-09-30T17:11:18;15.90;87.80
32107;DHT22;18622;51.998;10.440;2023-09-30T17:13:46;15.70;89.30
32107;DHT22;18622;51.998;10.440;2023-09-30T17:16:18;15.60;90.50
32107;DHT22;18622;51.998;10.440;2023-09-30T17:18:47;15.50;91.20
32107;DHT22;18622;51.998;10.440;2023-09-30T17:21:15;15.40;92.20
32107;DHT22;18622;51.998;10.440;2023-09-30T17:23:43;15.30;93.20
32107;DHT22;18622;51.998;10.440;2023-09-30T17:26:11;15.20;94.20
32107;DHT22;18622;51.998;10.440;2023-09-30T17:28:39;15.00;95.10
32107;DHT22;18622;51.998;10.440;2023-09-30T17:31:07;15.00;96.20
32107;DHT22;18622;51.998;10.440;2023-09-30T17:33:36;14.90;97.10
32107;DHT22;18622;51.998;10.440;2023-09-30T17:36:05;14.80;98.00
32107;DHT22;18622;51.998;10.440;2023-09-30T17:38:35;14.70;98.90
32107;DHT22;18622;51.998;10.440;2023-09-30T17:41:06;14.60;99.60
32107;DHT22;18622;51.998;10.440;2023-09-30T17:43:37;14.50;99.90
32107;DHT22;18622;51.998;10.440;2023-09-30T17:46:12;14.50;99.90
32107;DHT22;18622;51.998;10.440;2023-09-30T17:48:41;14.40;99.90
32107;DHT22;18622;51.998;10.440;2023-09-30T17:51:15;14.30;99.90
32107;DHT22;18622;51.998;10.440;2023-09-30T17:53:50;14.20;99.90
32107;DHT22;18622;51.998;10.440;2023-09-30T17:56:20;14.20;99.90
32107;DHT22;18622;51.998;10.440;2023-09-30T17:58:49;14.10;99.90
32107;DHT22;18622;51.998;10.440;2023-09-30T18:01:17;14.10;99.90
32107;DHT22;18622;51.998;10.440;2023-09-30T18:03:47;14.00;99.90
32107;DHT22;18622;51.998;10.440;2023-09-30T18:06:15;14.00;99.90
32107;DHT22;18622;51.998;10.440;2023-09-30T18:08:44;13.90;99.90
32107;DHT22;18622;51.998;10.440;2023-09-30T18:11:14;13.90;99.90
32107;DHT22;18622;51.998;10.440;2023-09-30T18:13:42;13.90;99.90
32107;DHT22;18622;51.998;10.440;2023-09-30T18:16:11;13.90;99.90
32107;DHT22;18622;51.998;10.440;2023-09-30T18:18:39;13.90;99.90
32107;DHT22;18622;51.998;10.440;2023-09-30T18:21:11;13.80;99.90
32107;DHT22;18622;51.998;10.440;2023-09-30T18:23:39;13.80;99.90
32107;DHT22;18622;51.998;10.440;2023-09-30T18:26:07;13.80;99.90
32107;DHT22;18622;51.998;10.440;2023-09-30T18:28:35;13.80;99.90
32107;DHT22;18622;51.998;10.440;2023-09-30T18:31:03;13.80;99.90
32107;DHT22;18622;51.998;10.440;2023-09-30T18:33:31;13.90;99.90
32107;DHT22;18622;51.998;10.440;2023-09-30T18:35:59;13.80;99.90
32107;DHT22;18622;51.998;10.440;2023-09-30T18:38:27;13.80;99.90
32107;DHT22;18622;51.998;10.440;2023-09-30T18:40:55;13.80;99.90
32107;DHT22;18622;51.998;10.440;2023-09-30T18:43:23;13.70;99.90
32107;DHT22;18622;51.998;10.440;2023-09-30T18:45:53;13.70;99.90
32107;DHT22;18622;51.998;10.440;2023-09-30T18:48:20;13.70;99.90
32107;DHT22;18622;51.998;10.440;2023-09-30T18:50:49;13.70;99.90
32107;DHT22;18622;51.998;10.440;2023-09-30T18:53:20;13.80;99.90
32107;DHT22;18622;51.998;10.440;2023-09-30T18:55:48;13.80;99.90
32107;DHT22;18622;51.998;10.440;2023-09-30T18:58:17;13.80;99.90
32107;DHT22;18622;51.998;10.440;2023-09-30T19:00:45;13.80;99.90
32107;DHT22;18622;51.998;10.440;2023-09-30T19:03:13;13.90;99.90
32107;DHT22;18622;51.998;10.440;2023-09-30T19:05:42;14.00;99.90
32107;DHT22;18622;51.998;10.440;2023-09-30T19:08:10;14.00;99.90
32107;DHT22;18622;51.998;10.440;2023-09-30T19:10:38;14.10;99.90